createdAt,value
2019-05-12T00:02:59.348Z,4.73
2019-05-12T00:07:23.204Z,4.20
2019-05-12T00:11:48.418Z,3.87
2019-05-12T00:16:13.583Z,4.03
2019-05-12T00:20:38.631Z,4.07
2019-05-12T00:25:02.649Z,4.37
2019-05-12T00:29:28.729Z,3.80
2019-05-12T00:33:52.355Z,4.00
2019-05-12T00:38:17.698Z,4.20
2019-05-12T00:42:40.787Z,3.97
2019-05-12T00:47:04.825Z,3.52
2019-05-12T00:51:28.880Z,4.57
2019-05-12T00:55:55.000Z,4.00
2019-05-12T01:00:20.166Z,3.83
2019-05-12T01:04:44.111Z,4.13
2019-05-12T01:09:09.201Z,4.30
2019-05-12T01:13:32.955Z,4.57
2019-05-12T01:17:58.483Z,3.93
2019-05-12T01:22:22.736Z,4.80
2019-05-12T01:26:47.699Z,4.43
2019-05-12T01:31:13.148Z,4.40
2019-05-12T01:35:38.752Z,4.07
2019-05-12T01:40:02.876Z,4.20
2019-05-12T01:44:28.721Z,4.47
2019-05-12T01:48:52.558Z,4.03
2019-05-12T01:53:18.140Z,4.28
2019-05-12T01:57:42.289Z,4.23
2019-05-12T02:02:08.470Z,3.93
2019-05-12T02:06:32.239Z,3.83
2019-05-12T02:11:15.296Z,4.27
2019-05-12T02:15:39.535Z,4.17
2019-05-12T02:20:04.138Z,3.97
2019-05-12T02:24:30.575Z,4.33
2019-05-12T02:28:53.803Z,4.47
2019-05-12T02:33:17.708Z,4.37
2019-05-12T02:37:45.213Z,5.00
2019-05-12T03:30:38.101Z,4.50
2019-05-12T03:34:58.968Z,4.63
2019-05-12T04:01:20.591Z,4.75
2019-05-12T04:05:45.288Z,5.20
2019-05-12T04:10:10.222Z,5.10
2019-05-12T04:14:34.638Z,5.17
2019-05-12T04:18:58.985Z,5.60
2019-05-12T04:23:24.734Z,6.23
2019-05-12T04:27:48.416Z,6.37
2019-05-12T04:32:14.376Z,5.92
2019-05-12T04:36:36.804Z,5.93
2019-05-12T04:41:00.768Z,5.10
2019-05-12T04:45:25.719Z,6.27
2019-05-12T04:49:50.386Z,6.67
2019-05-12T04:54:15.469Z,6.53
2019-05-12T04:58:40.077Z,5.50
2019-05-12T05:03:05.317Z,6.13
2019-05-12T05:07:30.036Z,5.77
2019-05-12T05:11:54.359Z,6.28
2019-05-12T05:16:18.779Z,6.60
2019-05-12T05:20:43.799Z,6.00
2019-05-12T05:25:07.810Z,6.80
2019-05-12T05:29:33.276Z,6.37
2019-05-12T05:33:57.328Z,5.60
2019-05-12T05:38:23.565Z,5.80
2019-05-12T05:42:47.216Z,5.70
2019-05-12T05:47:13.747Z,5.63
2019-05-12T05:51:39.654Z,5.13
2019-05-12T05:56:04.054Z,5.12
2019-05-12T06:00:28.590Z,4.70
2019-05-12T06:04:56.194Z,4.90
2019-05-12T06:09:18.212Z,4.75
2019-05-12T06:13:44.299Z,4.57
2019-05-12T06:18:07.807Z,4.63
2019-05-12T06:22:33.799Z,4.07
2019-05-12T06:27:00.698Z,3.83
2019-05-12T06:31:25.249Z,3.80
2019-05-12T06:35:48.988Z,3.93
2019-05-12T06:40:14.126Z,4.20
2019-05-12T06:44:37.032Z,3.67
2019-05-12T06:49:00.820Z,3.87
2019-05-12T06:53:28.983Z,4.10
2019-05-12T06:57:50.097Z,3.60
2019-05-12T07:02:13.857Z,3.80
2019-05-12T07:06:37.820Z,3.40
2019-05-12T07:11:05.911Z,3.63
2019-05-12T07:15:29.383Z,3.60
2019-05-12T07:19:56.992Z,3.00
2019-05-12T07:24:18.513Z,3.20
2019-05-12T07:28:43.331Z,3.80
2019-05-12T07:33:08.048Z,2.83
2019-05-12T07:37:35.175Z,2.63
2019-05-12T07:42:03.696Z,2.63
2019-05-12T07:46:27.994Z,2.10
2019-05-12T07:50:55.354Z,2.80
2019-05-12T07:55:15.058Z,2.50
2019-05-12T07:59:41.044Z,2.50
2019-05-12T08:04:06.058Z,1.70
2019-05-12T08:08:29.897Z,2.20
2019-05-12T08:12:59.417Z,2.67
2019-05-12T08:17:19.979Z,2.40
2019-05-12T08:21:48.845Z,2.70
2019-05-12T08:26:16.166Z,2.40
2019-05-12T08:30:40.437Z,2.83
2019-05-12T08:35:04.998Z,2.70
2019-05-12T08:39:28.149Z,2.77
2019-05-12T08:43:57.996Z,2.70
2019-05-12T08:48:21.776Z,2.27
2019-05-12T08:52:45.021Z,2.80
2019-05-12T08:57:08.898Z,2.50
2019-05-12T09:01:34.343Z,2.00
2019-05-12T09:05:58.497Z,1.90
2019-05-12T09:10:23.484Z,2.03
2019-05-12T09:14:47.589Z,1.90
2019-05-12T09:19:16.693Z,1.50
2019-05-12T09:23:41.066Z,1.77
2019-05-12T09:28:03.786Z,1.70
2019-05-12T09:32:27.765Z,1.77
2019-05-12T09:36:59.382Z,1.80
2019-05-12T09:41:18.381Z,1.70
2019-05-12T09:45:52.244Z,1.50
2019-05-12T09:50:09.748Z,1.70
2019-05-12T09:54:40.017Z,1.70
2019-05-12T09:59:04.747Z,1.40
2019-05-12T10:03:24.965Z,1.60
2019-05-12T10:07:49.406Z,1.63
2019-05-12T10:12:13.655Z,1.85
2019-05-12T10:16:39.583Z,1.93
2019-05-12T10:21:03.770Z,1.30
2019-05-12T10:25:29.103Z,1.30
2019-05-12T10:29:54.233Z,1.50
2019-05-12T10:34:23.788Z,1.33
2019-05-12T10:38:47.769Z,1.60
2019-05-12T10:43:12.032Z,1.40
2019-05-12T10:47:36.390Z,1.40
2019-05-12T10:52:00.598Z,1.70
2019-05-12T10:56:24.881Z,1.50
2019-05-12T11:00:48.767Z,1.53
2019-05-12T11:05:21.235Z,1.67
2019-05-12T11:09:39.283Z,1.57
2019-05-12T11:14:03.994Z,1.80
2019-05-12T11:18:30.567Z,1.30
2019-05-12T11:22:54.408Z,1.87
2019-05-12T11:27:18.391Z,1.50
2019-05-12T11:31:44.108Z,1.57
2019-05-12T11:36:08.951Z,1.43
2019-05-12T11:40:34.835Z,1.40
2019-05-12T11:44:58.763Z,1.60
2019-05-12T11:49:26.431Z,1.63
2019-05-12T11:53:48.788Z,1.70
2019-05-12T11:58:13.219Z,2.10
2019-05-12T12:02:37.025Z,1.70
2019-05-12T12:07:00.845Z,1.40
2019-05-12T12:11:27.946Z,1.60
2019-05-12T12:15:50.598Z,1.73
2019-05-12T12:20:22.631Z,1.60
2019-05-12T12:24:43.642Z,1.60
2019-05-12T12:29:08.254Z,1.70
2019-05-12T12:33:38.634Z,1.60
2019-05-12T12:37:59.010Z,1.47
2019-05-12T12:42:24.209Z,1.50
2019-05-12T12:46:51.148Z,1.60
2019-05-12T12:51:17.454Z,1.53
2019-05-12T12:55:43.549Z,1.23
2019-05-12T13:00:07.878Z,1.30
2019-05-12T13:04:33.993Z,1.40
2019-05-12T13:08:57.688Z,1.50
2019-05-12T13:13:21.663Z,1.70
2019-05-12T13:17:44.948Z,1.57
2019-05-12T13:22:08.912Z,1.72
2019-05-12T13:26:31.220Z,1.70
2019-05-12T13:30:55.899Z,1.80
2019-05-12T13:35:19.992Z,1.80
2019-05-12T13:39:39.574Z,2.00
2019-05-12T13:44:04.087Z,1.60
2019-05-12T13:48:27.924Z,1.30
2019-05-12T13:52:50.347Z,1.60
2019-05-12T13:57:13.977Z,1.67
2019-05-12T14:01:40.293Z,1.60
2019-05-12T14:06:03.696Z,1.57
2019-05-12T14:10:27.510Z,1.73
2019-05-12T14:14:51.502Z,5.33
2019-05-12T14:19:15.861Z,3.83
2019-05-12T14:23:40.635Z,2.10
2019-05-12T14:28:09.388Z,1.50
2019-05-12T14:32:33.526Z,2.23
2019-05-12T14:37:05.567Z,1.90
2019-05-12T14:41:26.881Z,1.70
2019-05-12T14:45:49.615Z,1.90
2019-05-12T14:50:14.320Z,1.82
2019-05-12T14:54:38.373Z,1.40
2019-05-12T14:59:03.484Z,2.10
2019-05-12T15:03:27.589Z,1.37
2019-05-12T15:07:54.396Z,1.40
2019-05-12T15:12:17.496Z,2.17
2019-05-12T15:16:44.233Z,1.30
2019-05-12T15:21:08.006Z,1.50
2019-05-12T15:25:35.509Z,1.60
2019-05-12T15:29:59.503Z,1.83
2019-05-12T15:34:23.809Z,1.95
2019-05-12T15:38:49.278Z,1.97
2019-05-12T15:43:14.047Z,1.80
2019-05-12T15:47:37.835Z,2.10
2019-05-12T15:52:03.509Z,2.13
2019-05-12T15:56:27.454Z,1.60
2019-05-12T16:00:54.010Z,1.73
2019-05-12T16:05:20.143Z,1.20
2019-05-12T16:09:45.353Z,1.53
2019-05-12T16:14:08.529Z,2.00
2019-05-12T16:18:34.457Z,1.40
2019-05-12T16:22:57.832Z,1.70
2019-05-12T16:27:24.881Z,1.73
2019-05-12T16:31:49.823Z,1.90
2019-05-12T16:36:14.588Z,2.52
2019-05-12T16:40:39.629Z,2.20
2019-05-12T16:45:08.827Z,2.40
2019-05-12T16:49:34.664Z,2.00
2019-05-12T16:53:56.478Z,1.60
2019-05-12T16:58:24.513Z,1.80
2019-05-12T17:02:53.831Z,1.50
2019-05-12T17:07:18.891Z,2.20
2019-05-12T17:11:47.282Z,1.77
2019-05-12T17:16:04.434Z,2.33
2019-05-12T17:20:28.272Z,1.87
2019-05-12T17:24:53.827Z,1.57
2019-05-12T17:29:17.689Z,2.13
2019-05-12T17:33:41.482Z,2.30
2019-05-12T17:38:05.805Z,2.73
2019-05-12T17:42:29.957Z,1.70
2019-05-12T17:46:54.136Z,1.97
2019-05-12T17:51:25.662Z,2.00
2019-05-12T17:55:50.809Z,2.27
2019-05-12T18:00:11.037Z,2.20
2019-05-12T18:04:36.823Z,2.27
2019-05-12T18:09:01.044Z,2.20
2019-05-12T18:13:28.201Z,2.80
2019-05-12T18:17:53.352Z,2.20
2019-05-12T18:22:17.514Z,1.85
2019-05-12T18:26:48.748Z,2.00
2019-05-12T18:31:07.362Z,2.10
2019-05-12T18:35:31.305Z,1.90
2019-05-12T18:39:55.376Z,1.83
2019-05-12T18:44:28.950Z,1.90
2019-05-12T18:48:45.478Z,2.07
2019-05-12T18:53:14.466Z,2.23
2019-05-12T18:57:39.334Z,2.30
2019-05-12T19:02:03.637Z,2.08
2019-05-12T19:06:26.825Z,2.60
2019-05-12T19:10:51.832Z,2.60
2019-05-12T19:15:21.728Z,2.45
2019-05-12T19:19:45.962Z,2.33
2019-05-12T19:24:14.161Z,2.10
2019-05-12T19:28:34.537Z,2.17
2019-05-12T19:33:00.063Z,2.10
2019-05-12T19:37:29.710Z,2.17
2019-05-12T19:41:51.332Z,2.20
2019-05-12T19:46:15.419Z,2.53
2019-05-12T19:50:44.427Z,2.10
2019-05-12T19:55:05.964Z,2.45
2019-05-12T19:59:29.734Z,2.70
2019-05-12T20:03:55.580Z,2.70
2019-05-12T20:08:19.201Z,3.00
2019-05-12T20:12:43.770Z,2.57
2019-05-12T20:17:07.700Z,2.40
2019-05-12T20:21:33.852Z,2.80
2019-05-12T20:25:57.464Z,3.00
2019-05-12T20:30:21.417Z,2.90
2019-05-12T20:34:51.558Z,2.47
2019-05-12T20:39:16.808Z,2.90
2019-05-12T20:43:40.718Z,3.00
2019-05-12T20:48:04.051Z,3.07
2019-05-12T20:52:26.335Z,2.70
2019-05-12T20:56:53.185Z,2.47
2019-05-12T21:01:14.100Z,2.70
2019-05-12T21:05:36.513Z,2.57
2019-05-12T21:09:58.928Z,2.93
2019-05-12T21:14:23.885Z,2.40
2019-05-12T21:18:50.476Z,2.85
2019-05-12T21:23:10.815Z,2.80
2019-05-12T21:27:33.475Z,2.40
2019-05-12T21:31:56.407Z,3.53
2019-05-12T21:36:24.472Z,3.40
2019-05-12T21:40:44.207Z,2.80
2019-05-12T21:45:07.080Z,3.00
2019-05-12T21:49:29.501Z,3.03
2019-05-12T21:53:56.184Z,2.70
2019-05-12T21:58:16.449Z,2.50
2019-05-12T22:02:38.997Z,3.00
2019-05-12T22:07:03.911Z,2.90
2019-05-12T22:11:28.446Z,3.23
2019-05-12T22:15:57.292Z,2.93
2019-05-12T22:20:19.950Z,2.72
2019-05-12T22:24:44.193Z,2.57
2019-05-12T22:29:08.325Z,2.60
2019-05-12T22:33:33.391Z,2.85
2019-05-12T22:37:58.519Z,2.77
2019-05-12T22:42:24.464Z,2.80
2019-05-12T22:46:48.310Z,2.93
2019-05-12T22:51:23.167Z,3.52
2019-05-12T22:55:37.825Z,3.00
2019-05-12T23:00:03.991Z,3.40
2019-05-12T23:04:35.509Z,3.40
2019-05-12T23:08:54.927Z,2.93
2019-05-12T23:13:19.000Z,2.80
2019-05-12T23:17:45.320Z,3.27
2019-05-12T23:22:05.837Z,2.97
2019-05-12T23:26:33.275Z,3.33
2019-05-12T23:30:55.696Z,3.30
2019-05-12T23:35:19.800Z,3.58
2019-05-12T23:39:44.878Z,2.80
2019-05-12T23:44:08.743Z,3.10
2019-05-12T23:48:33.573Z,2.93
2019-05-12T23:52:57.616Z,3.43
2019-05-12T23:57:21.732Z,2.77
